Time;durP1;ratioP1;P1;durP2;ratioP2;P2;SDS_P1;SDS_P2;PMS_P1;PMS_P2;Temp;Humidity;BMP_temperature;BMP_pressure;BME280_temperature;BME280_humidity;BME280_pressure;Samples;Min_cycle;Max_cycle;Signal;HPM_P1;HPM_P2
2020/12/06 00:01:21;;;;;;;4.45;1.30;;;10.70;99.90;;;;;;5133002;27;20041;-58
2020/12/06 00:04:27;;;;;;;3.97;1.40;;;10.60;99.90;;;;;;5121507;27;20046;-59
2020/12/06 00:07:31;;;;;;;4.85;1.52;;;10.60;99.90;;;;;;5132293;27;20046;-55
2020/12/06 00:10:35;;;;;;;2.35;0.60;;;10.40;99.90;;;;;;5131918;27;20046;-59
2020/12/06 00:13:40;;;;;;;6.10;1.83;;;10.30;99.90;;;;;;5132395;27;20050;-55
2020/12/06 00:16:47;;;;;;;3.85;1.10;;;10.20;99.90;;;;;;5132054;27;20125;-58
2020/12/06 00:19:51;;;;;;;3.30;0.80;;;10.10;99.90;;;;;;5122233;27;20512;-58
2020/12/06 00:22:56;;;;;;;2.38;0.50;;;10.10;99.90;;;;;;5132220;27;20043;-55
2020/12/06 00:26:00;;;;;;;6.53;1.52;;;10.10;99.90;;;;;;5131965;27;20057;-56
2020/12/06 00:29:04;;;;;;;2.70;1.55;;;10.30;99.90;;;;;;5132145;27;20038;-56
2020/12/06 00:32:08;;;;;;;0.98;0.35;;;10.30;99.90;;;;;;5132109;27;20046;-58
2020/12/06 00:35:12;;;;;;;0.50;0.50;;;10.30;99.90;;;;;;5121980;27;20046;-56
2020/12/06 00:38:16;;;;;;;2.10;0.70;;;10.40;99.90;;;;;;5131429;27;20026;-55
2020/12/06 00:41:22;;;;;;;1.33;0.95;;;10.30;99.90;;;;;;5131150;27;20573;-55
2020/12/06 00:44:27;;;;;;;4.35;0.45;;;10.40;99.90;;;;;;5131760;27;20528;-54
2020/12/06 00:47:34;;;;;;;4.47;0.50;;;10.40;99.90;;;;;;5131402;27;20042;-57
2020/12/06 00:50:39;;;;;;;3.72;0.52;;;10.40;99.90;;;;;;5130726;27;20057;-55
2020/12/06 00:53:43;;;;;;;2.30;0.47;;;10.40;99.90;;;;;;5120124;27;20212;-54
2020/12/06 00:56:57;;;;;;;2.30;0.80;;;10.40;99.90;;;;;;5131234;27;20417;-59
2020/12/06 01:00:02;;;;;;;2.53;0.52;;;10.30;99.90;;;;;;5131079;27;20331;-55
2020/12/06 01:03:06;;;;;;;1.25;0.57;;;10.30;99.90;;;;;;5131506;27;20509;-58
2020/12/06 01:06:18;;;;;;;3.75;0.60;;;10.30;99.90;;;;;;5120499;27;20042;-56
2020/12/06 01:09:22;;;;;;;5.57;0.77;;;10.40;99.90;;;;;;5125909;27;20050;-60
2020/12/06 01:12:26;;;;;;;5.88;0.65;;;10.30;99.90;;;;;;5117583;27;20500;-58
2020/12/06 01:15:30;;;;;;;3.10;0.45;;;10.30;99.90;;;;;;5112576;27;20042;-60
2020/12/06 01:18:34;;;;;;;4.65;0.60;;;10.20;99.90;;;;;;5118776;27;20043;-58
2020/12/06 01:21:38;;;;;;;2.38;0.70;;;10.10;99.90;;;;;;5130379;27;20396;-60
2020/12/06 01:24:42;;;;;;;2.72;0.68;;;10.10;99.90;;;;;;5124596;27;20038;-60
2020/12/06 01:27:46;;;;;;;2.72;0.55;;;10.00;99.90;;;;;;5125157;27;20066;-60
2020/12/06 01:30:50;;;;;;;2.42;0.50;;;9.90;99.90;;;;;;5128770;27;20492;-58
2020/12/06 01:33:56;;;;;;;1.60;0.60;;;9.90;99.90;;;;;;5130839;27;20481;-58
2020/12/06 01:37:03;;;;;;;12.57;1.30;;;9.90;99.90;;;;;;5117356;27;20370;-59
2020/12/06 01:40:07;;;;;;;1.33;0.50;;;10.00;99.90;;;;;;5130397;27;20195;-59
2020/12/06 01:43:11;;;;;;;2.35;0.50;;;9.90;99.90;;;;;;5130379;27;20050;-60
2020/12/06 01:46:15;;;;;;;3.08;0.40;;;9.90;99.90;;;;;;5130905;27;20031;-59
2020/12/06 01:49:25;;;;;;;1.88;0.77;;;9.80;99.90;;;;;;5122802;27;20378;-60
2020/12/06 01:52:30;;;;;;;2.95;0.60;;;9.80;99.90;;;;;;5118170;27;20027;-60
2020/12/06 01:55:35;;;;;;;4.43;1.88;;;9.80;99.90;;;;;;5129254;27;20039;-60
2020/12/06 01:58:40;;;;;;;6.82;1.50;;;9.70;99.90;;;;;;5126688;27;20035;-61
2020/12/06 02:01:57;;;;;;;3.38;1.00;;;9.60;99.90;;;;;;5123421;27;20386;-60
2020/12/06 02:05:05;;;;;;;1.92;0.40;;;9.60;99.90;;;;;;5129536;27;20035;-60
2020/12/06 02:08:12;;;;;;;1.75;0.47;;;9.60;99.90;;;;;;5127656;27;20039;-58
2020/12/06 02:11:31;;;;;;;1.58;0.60;;;9.60;99.90;;;;;;5123447;28;20035;-61
2020/12/06 02:14:36;;;;;;;3.85;0.70;;;9.60;99.90;;;;;;5121606;28;20035;-60
2020/12/06 02:17:40;;;;;;;3.40;0.40;;;9.60;99.90;;;;;;5126115;28;20043;-60
2020/12/06 02:20:45;;;;;;;1.15;0.40;;;9.60;99.90;;;;;;5115511;28;20379;-55
2020/12/06 02:23:50;;;;;;;2.92;0.43;;;9.50;99.90;;;;;;5130179;28;20031;-59
2020/12/06 02:26:53;;;;;;;1.25;0.40;;;9.50;99.90;;;;;;5129117;28;20027;-60
2020/12/06 02:29:57;;;;;;;2.30;0.60;;;9.40;99.90;;;;;;5129513;28;20039;-60
2020/12/06 02:33:03;;;;;;;1.67;0.50;;;9.50;99.90;;;;;;5129816;28;20031;-59
2020/12/06 02:36:09;;;;;;;1.33;0.57;;;9.50;99.90;;;;;;5129678;28;20039;-55
2020/12/06 02:39:13;;;;;;;4.05;0.50;;;9.50;99.90;;;;;;5129505;28;20477;-60
2020/12/06 02:42:18;;;;;;;1.13;0.35;;;9.50;99.90;;;;;;5129298;28;20236;-60
2020/12/06 02:45:22;;;;;;;2.90;0.50;;;9.40;99.90;;;;;;5129869;28;20489;-59
2020/12/06 02:48:26;;;;;;;3.55;0.43;;;9.40;99.90;;;;;;5129712;28;20382;-60
2020/12/06 02:51:30;;;;;;;1.63;0.70;;;9.30;99.90;;;;;;5120617;28;20437;-55
2020/12/06 02:54:35;;;;;;;2.42;0.88;;;9.30;99.90;;;;;;5130097;28;20457;-60
2020/12/06 02:57:39;;;;;;;5.55;0.90;;;9.30;99.90;;;;;;5129863;28;20035;-60
2020/12/06 03:00:43;;;;;;;2.90;0.70;;;9.20;99.90;;;;;;5129274;28;20039;-59
2020/12/06 03:03:47;;;;;;;1.95;0.65;;;9.20;99.90;;;;;;5129905;28;20035;-60
2020/12/06 03:06:52;;;;;;;2.05;0.80;;;9.10;99.90;;;;;;5129622;28;20036;-58
2020/12/06 03:09:56;;;;;;;4.00;0.85;;;9.10;99.90;;;;;;5117818;28;20043;-59
2020/12/06 03:13:01;;;;;;;5.15;1.70;;;9.20;99.90;;;;;;5129847;28;20035;-60
2020/12/06 03:16:06;;;;;;;2.78;1.58;;;9.10;99.90;;;;;;5132467;27;20027;-58
2020/12/06 03:19:10;;;;;;;6.93;2.03;;;9.20;99.90;;;;;;5133292;27;20039;-58
2020/12/06 03:22:14;;;;;;;8.43;1.70;;;9.20;99.90;;;;;;5133227;27;20485;-54
2020/12/06 03:25:18;;;;;;;7.63;2.00;;;9.20;99.90;;;;;;5133154;27;20039;-57
2020/12/06 03:28:22;;;;;;;6.30;1.02;;;9.20;99.90;;;;;;5133470;27;20047;-59
2020/12/06 03:31:26;;;;;;;2.67;0.77;;;9.20;99.90;;;;;;5132627;27;20031;-59
2020/12/06 03:34:30;;;;;;;2.40;0.65;;;9.20;99.90;;;;;;5133031;27;20039;-58
2020/12/06 03:37:36;;;;;;;2.05;0.60;;;9.20;99.90;;;;;;5132108;27;20086;-60
2020/12/06 03:40:40;;;;;;;4.32;0.88;;;9.30;99.90;;;;;;5120966;27;20039;-56
2020/12/06 03:43:44;;;;;;;3.88;0.65;;;9.40;99.90;;;;;;5133095;27;20039;-58
2020/12/06 03:46:48;;;;;;;1.45;0.50;;;9.30;99.90;;;;;;5132921;27;20031;-58
2020/12/06 03:49:52;;;;;;;1.73;0.70;;;9.30;99.90;;;;;;5132091;27;20043;-58
2020/12/06 03:52:57;;;;;;;0.45;0.40;;;9.40;99.90;;;;;;5132204;27;20394;-60
2020/12/06 03:56:01;;;;;;;1.73;0.50;;;9.30;99.90;;;;;;5120332;27;20039;-56
2020/12/06 03:59:05;;;;;;;5.55;0.50;;;9.30;99.90;;;;;;5132720;27;20043;-60
2020/12/06 04:02:09;;;;;;;10.20;1.05;;;9.20;99.90;;;;;;5132495;27;20031;-59
2020/12/06 04:05:13;;;;;;;2.28;0.70;;;9.20;99.90;;;;;;5132477;27;20504;-59
2020/12/06 04:08:18;;;;;;;3.28;0.80;;;9.20;99.90;;;;;;5132677;27;20513;-58
2020/12/06 04:11:22;;;;;;;1.73;0.60;;;9.30;99.90;;;;;;5131899;27;20394;-54
2020/12/06 04:14:26;;;;;;;1.42;0.77;;;9.30;99.90;;;;;;5132705;27;20039;-54
2020/12/06 04:17:32;;;;;;;1.20;0.50;;;9.40;99.90;;;;;;5132691;27;20035;-58
2020/12/06 04:20:36;;;;;;;2.60;0.57;;;9.40;99.90;;;;;;5131776;27;20039;-60
2020/12/06 04:23:40;;;;;;;1.08;0.80;;;9.40;99.90;;;;;;5121511;27;20043;-58
2020/12/06 04:26:44;;;;;;;2.50;0.52;;;9.40;99.90;;;;;;5131886;27;20043;-53
2020/12/06 04:29:48;;;;;;;1.52;0.40;;;9.30;99.90;;;;;;5132005;27;20039;-56
2020/12/06 04:32:52;;;;;;;1.92;0.50;;;9.30;99.90;;;;;;5132211;27;20031;-59
2020/12/06 04:35:57;;;;;;;6.28;0.60;;;9.30;99.90;;;;;;5131942;27;20039;-59
2020/12/06 04:39:02;;;;;;;1.88;1.20;;;9.30;99.90;;;;;;5132389;27;20035;-59
2020/12/06 04:42:06;;;;;;;3.25;1.30;;;9.20;99.90;;;;;;5131565;27;20031;-53
2020/12/06 04:45:11;;;;;;;2.75;0.90;;;9.20;99.90;;;;;;5132456;27;20047;-56
2020/12/06 04:48:34;;;;;;;2.03;0.80;;;9.10;99.90;;;;;;5132271;27;20039;-58
2020/12/06 04:51:44;;;;;;;1.63;1.13;;;9.10;99.90;;;;;;5131505;27;20043;-57
2020/12/06 04:55:16;;;;;;;3.60;0.93;;;9.10;99.90;;;;;;5132356;27;20485;-59
2020/12/06 04:58:26;;;;;;;1.13;0.70;;;9.10;99.90;;;;;;5131911;27;20031;-57
2020/12/06 05:01:34;;;;;;;2.28;0.93;;;9.20;99.90;;;;;;5131172;27;20541;-59
2020/12/06 05:04:42;;;;;;;15.30;3.33;;;9.20;99.90;;;;;;5121376;27;20032;-57
2020/12/06 05:07:49;;;;;;;4.60;3.10;;;9.20;99.90;;;;;;5131646;27;20039;-54
2020/12/06 05:10:54;;;;;;;7.30;3.20;;;9.20;99.90;;;;;;5130352;27;20035;-54
2020/12/06 05:13:58;;;;;;;11.23;3.05;;;9.20;99.90;;;;;;5131416;27;20039;-58
2020/12/06 05:17:03;;;;;;;9.43;3.40;;;9.30;99.90;;;;;;5123230;27;20516;-58
2020/12/06 05:20:09;;;;;;;9.77;3.50;;;9.30;99.90;;;;;;5130500;27;20035;-60
2020/12/06 05:23:13;;;;;;;4.95;3.10;;;9.30;99.90;;;;;;5131118;27;20035;-53
2020/12/06 05:26:17;;;;;;;6.00;2.50;;;9.30;99.90;;;;;;5130810;27;20410;-54
2020/12/06 05:29:21;;;;;;;4.60;2.55;;;9.40;99.90;;;;;;5131193;27;20042;-57
2020/12/06 05:32:28;;;;;;;3.88;2.50;;;9.40;99.90;;;;;;5121128;27;20461;-59
2020/12/06 05:35:33;;;;;;;3.60;2.03;;;9.40;99.90;;;;;;5119347;27;20039;-60
2020/12/06 05:38:37;;;;;;;5.57;2.30;;;9.40;99.90;;;;;;5130126;27;20405;-57
2020/12/06 05:41:48;;;;;;;4.38;1.83;;;9.50;99.90;;;;;;5129733;27;20035;-57
2020/12/06 05:44:56;;;;;;;8.30;2.78;;;9.50;99.90;;;;;;5130588;27;20039;-58
2020/12/06 05:48:00;;;;;;;7.63;2.47;;;9.50;99.90;;;;;;5130612;27;20043;-58
2020/12/06 05:51:06;;;;;;;3.22;1.90;;;9.50;99.90;;;;;;5120341;27;20027;-57
2020/12/06 05:54:11;;;;;;;5.60;2.58;;;9.50;99.90;;;;;;5130767;27;20027;-53
2020/12/06 05:57:16;;;;;;;3.20;2.10;;;9.50;99.90;;;;;;5130083;27;20035;-56
2020/12/06 06:00:21;;;;;;;4.65;2.55;;;9.60;99.90;;;;;;5130357;27;20035;-57
2020/12/06 06:03:32;;;;;;;6.18;1.80;;;9.60;99.90;;;;;;5129768;27;20031;-55
2020/12/06 06:06:39;;;;;;;3.03;1.77;;;9.50;99.90;;;;;;5130385;27;20047;-58
2020/12/06 06:09:53;;;;;;;2.40;1.45;;;9.50;99.90;;;;;;5130231;27;20497;-54
2020/12/06 06:13:02;;;;;;;4.43;2.20;;;9.50;99.90;;;;;;5118707;27;20039;-54
2020/12/06 06:16:07;;;;;;;2.38;1.40;;;9.50;99.90;;;;;;5129942;28;20039;-58
2020/12/06 06:19:11;;;;;;;3.25;1.45;;;9.50;99.90;;;;;;5129396;28;20043;-60
2020/12/06 06:22:19;;;;;;;5.80;1.98;;;9.50;99.90;;;;;;5129514;28;20036;-58
2020/12/06 06:25:24;;;;;;;4.40;1.98;;;9.40;99.90;;;;;;5130322;28;20392;-55
2020/12/06 06:28:29;;;;;;;7.47;2.20;;;9.40;99.90;;;;;;5129255;28;20051;-53
2020/12/06 06:31:33;;;;;;;2.25;1.60;;;9.40;99.90;;;;;;5118323;28;20548;-55
2020/12/06 06:34:38;;;;;;;4.07;1.80;;;9.40;99.90;;;;;;5125077;28;20031;-56
2020/12/06 06:37:42;;;;;;;5.53;2.30;;;9.50;99.90;;;;;;5115507;28;20035;-59
2020/12/06 06:40:50;;;;;;;4.15;2.58;;;9.50;99.90;;;;;;5109032;28;20493;-54
2020/12/06 06:44:03;;;;;;;4.78;2.90;;;9.50;99.90;;;;;;5115283;28;20043;-59
2020/12/06 06:47:12;;;;;;;3.60;2.33;;;9.50;99.90;;;;;;5109940;28;20044;-58
2020/12/06 06:50:18;;;;;;;4.25;2.33;;;9.40;99.90;;;;;;5112856;28;20039;-57
2020/12/06 06:53:25;;;;;;;6.45;2.50;;;9.40;99.90;;;;;;5112908;27;20498;-55
2020/12/06 06:56:30;;;;;;;5.70;2.10;;;9.40;99.90;;;;;;5119150;27;20486;-57
2020/12/06 06:59:41;;;;;;;4.78;2.17;;;9.40;99.90;;;;;;5124791;27;20031;-58
2020/12/06 07:02:45;;;;;;;3.92;1.65;;;9.40;99.90;;;;;;5122136;27;20043;-58
2020/12/06 07:05:49;;;;;;;3.50;2.35;;;9.30;99.90;;;;;;5121982;27;20047;-60
2020/12/06 07:08:54;;;;;;;4.55;1.92;;;9.40;99.90;;;;;;5121102;27;20040;-54
2020/12/06 07:12:00;;;;;;;3.33;1.80;;;9.40;99.90;;;;;;5113248;27;20505;-57
2020/12/06 07:15:11;;;;;;;4.53;2.25;;;9.40;99.90;;;;;;5121460;27;20027;-57
2020/12/06 07:18:16;;;;;;;3.10;1.95;;;9.40;99.90;;;;;;5119762;27;20035;-59
2020/12/06 07:21:21;;;;;;;5.78;2.45;;;9.40;99.90;;;;;;5129901;27;20390;-58
2020/12/06 07:24:27;;;;;;;3.42;1.98;;;9.40;99.90;;;;;;5115188;27;20036;-54
2020/12/06 07:27:33;;;;;;;3.53;1.80;;;9.40;99.90;;;;;;5124995;27;20039;-53
2020/12/06 07:30:41;;;;;;;7.93;2.67;;;9.40;99.90;;;;;;5121531;27;20039;-53
2020/12/06 07:33:45;;;;;;;4.70;2.00;;;9.50;99.90;;;;;;5125099;27;20035;-59
2020/12/06 07:36:51;;;;;;;5.03;2.72;;;9.50;99.90;;;;;;5126615;27;20494;-59
2020/12/06 07:39:55;;;;;;;8.25;4.47;;;9.50;99.90;;;;;;5116324;27;20386;-55
2020/12/06 07:43:11;;;;;;;2.42;1.73;;;9.60;99.90;;;;;;5125453;27;20035;-56
2020/12/06 07:46:17;;;;;;;6.10;1.83;;;9.60;99.90;;;;;;5115850;27;20038;-57
2020/12/06 07:49:22;;;;;;;11.07;3.20;;;9.60;99.90;;;;;;5117947;27;20031;-56
2020/12/06 07:52:28;;;;;;;6.60;2.67;;;9.70;99.90;;;;;;5116245;27;20046;-53
2020/12/06 07:55:32;;;;;;;5.15;2.80;;;9.70;99.90;;;;;;5116236;27;20047;-53
2020/12/06 07:58:43;;;;;;;5.15;2.42;;;9.60;99.90;;;;;;5114925;27;20379;-55
2020/12/06 08:01:49;;;;;;;6.53;3.30;;;9.70;99.90;;;;;;5112340;27;20031;-55
2020/12/06 08:04:55;;;;;;;8.05;5.55;;;9.70;99.90;;;;;;5118481;27;20027;-59
2020/12/06 08:08:09;;;;;;;11.75;8.43;;;9.70;99.90;;;;;;5116683;27;20032;-58
2020/12/06 08:11:15;;;;;;;8.88;4.63;;;9.70;99.90;;;;;;5117620;27;20062;-57
2020/12/06 08:14:20;;;;;;;26.38;6.60;;;9.80;99.90;;;;;;5110408;27;20040;-57
2020/12/06 08:17:25;;;;;;;6.03;2.47;;;9.80;99.90;;;;;;5120442;27;20042;-57
2020/12/06 08:20:30;;;;;;;5.00;2.22;;;9.90;99.90;;;;;;5118387;27;20058;-57
2020/12/06 08:23:40;;;;;;;4.63;1.70;;;9.90;99.90;;;;;;5119659;27;20035;-54
2020/12/06 08:26:45;;;;;;;5.00;1.90;;;9.90;99.90;;;;;;5119027;27;20039;-56
2020/12/06 08:29:54;;;;;;;6.28;1.50;;;9.90;99.90;;;;;;5111102;27;20528;-55
2020/12/06 08:33:01;;;;;;;3.70;1.63;;;9.90;99.90;;;;;;5109624;28;20036;-55
2020/12/06 08:36:05;;;;;;;2.53;1.42;;;9.90;99.90;;;;;;5120774;27;20040;-53
2020/12/06 08:39:20;;;;;;;3.15;1.60;;;9.90;99.90;;;;;;5117841;27;20482;-56
2020/12/06 08:42:24;;;;;;;3.03;2.40;;;9.90;99.90;;;;;;5115115;27;20043;-56
2020/12/06 08:45:28;;;;;;;3.50;1.95;;;9.90;99.90;;;;;;5113361;27;20485;-54
2020/12/06 08:48:33;;;;;;;2.45;2.10;;;9.90;99.90;;;;;;5126808;27;20031;-57
2020/12/06 08:51:37;;;;;;;3.70;1.77;;;9.80;99.90;;;;;;5110775;27;20031;-55
2020/12/06 08:54:46;;;;;;;27.40;6.53;;;9.90;99.90;;;;;;5110084;27;20490;-56
2020/12/06 08:57:51;;;;;;;4.82;2.85;;;9.90;99.90;;;;;;5120999;27;20038;-57
2020/12/06 09:01:04;;;;;;;9.73;4.97;;;9.90;99.90;;;;;;5117024;27;20035;-56
2020/12/06 09:04:08;;;;;;;8.13;3.35;;;9.90;99.90;;;;;;5112607;27;20031;-55
2020/12/06 09:07:13;;;;;;;11.73;9.38;;;10.00;99.90;;;;;;5114557;27;20056;-54
2020/12/06 09:10:17;;;;;;;4.40;2.78;;;9.90;99.90;;;;;;5108780;28;20046;-54
2020/12/06 09:13:21;;;;;;;7.25;2.58;;;10.00;99.90;;;;;;5113095;27;20047;-52
2020/12/06 09:16:26;;;;;;;4.30;2.55;;;10.00;99.90;;;;;;5115069;27;20046;-59
2020/12/06 09:19:30;;;;;;;4.30;2.25;;;9.80;99.90;;;;;;5113911;27;20590;-59
2020/12/06 09:22:35;;;;;;;2.83;1.50;;;9.90;99.90;;;;;;5118998;27;20027;-58
2020/12/06 09:25:39;;;;;;;5.35;2.17;;;9.80;99.90;;;;;;5109317;27;20039;-56
2020/12/06 09:28:44;;;;;;;4.43;3.47;;;9.80;99.90;;;;;;5108712;28;20371;-54
2020/12/06 09:31:48;;;;;;;4.82;1.80;;;9.90;99.90;;;;;;5125115;27;20035;-56
2020/12/06 09:34:52;;;;;;;2.78;1.63;;;9.80;99.90;;;;;;5126720;27;20035;-56
2020/12/06 09:37:57;;;;;;;2.63;1.60;;;9.80;99.90;;;;;;5128955;27;20038;-55
2020/12/06 09:41:01;;;;;;;4.93;2.33;;;9.90;99.90;;;;;;5109358;28;20615;-56
2020/12/06 09:44:07;;;;;;;7.88;1.95;;;9.80;99.90;;;;;;5124046;27;20035;-59
2020/12/06 09:47:11;;;;;;;5.10;2.85;;;9.90;99.90;;;;;;5115192;27;20039;-58
2020/12/06 09:50:16;;;;;;;98.65;70.28;;;9.90;99.90;;;;;;5123513;27;20039;-60
2020/12/06 09:53:20;;;;;;;27.58;18.55;;;9.90;99.90;;;;;;5123391;27;20520;-53
2020/12/06 09:56:29;;;;;;;7.75;4.53;;;10.00;99.90;;;;;;5115294;27;20754;-56
2020/12/06 09:59:33;;;;;;;2.63;2.00;;;10.00;99.90;;;;;;5124293;27;20054;-56
2020/12/06 10:02:37;;;;;;;6.53;2.33;;;10.10;99.90;;;;;;5113305;27;20051;-59
2020/12/06 10:05:42;;;;;;;12.55;7.93;;;10.10;99.90;;;;;;5124326;27;20047;-56
2020/12/06 10:08:47;;;;;;;23.05;13.35;;;10.10;99.90;;;;;;5110521;28;20043;-57
2020/12/06 10:11:52;;;;;;;3.50;2.50;;;10.30;99.90;;;;;;5115636;27;20042;-59
2020/12/06 10:14:56;;;;;;;2.53;1.63;;;10.30;99.90;;;;;;5124369;27;20109;-54
2020/12/06 10:18:00;;;;;;;2.42;1.65;;;10.40;99.90;;;;;;5122302;28;20058;-55
2020/12/06 10:21:05;;;;;;;1.95;1.60;;;10.40;99.90;;;;;;5118274;28;20034;-59
2020/12/06 10:24:09;;;;;;;2.58;1.45;;;10.40;99.90;;;;;;5116126;27;20046;-55
2020/12/06 10:27:13;;;;;;;3.35;1.77;;;10.40;99.90;;;;;;5119362;27;20046;-53
2020/12/06 10:30:17;;;;;;;1.60;1.20;;;10.50;99.90;;;;;;5118323;27;20160;-55
2020/12/06 10:33:21;;;;;;;3.00;1.70;;;10.70;99.90;;;;;;5124238;27;20034;-55
2020/12/06 10:36:25;;;;;;;4.47;2.05;;;10.80;99.90;;;;;;5121583;27;20043;-55
2020/12/06 10:39:29;;;;;;;3.75;1.77;;;10.90;99.90;;;;;;5122154;27;20042;-55
2020/12/06 10:42:33;;;;;;;5.60;2.40;;;10.90;99.90;;;;;;5121826;27;20397;-58
2020/12/06 10:45:38;;;;;;;4.28;1.80;;;11.00;99.90;;;;;;5119308;27;20050;-59
2020/12/06 10:48:42;;;;;;;4.15;1.70;;;10.90;99.90;;;;;;5125931;27;20046;-59
2020/12/06 10:51:47;;;;;;;2.53;1.65;;;10.90;99.90;;;;;;5122247;27;20034;-59
2020/12/06 10:54:52;;;;;;;7.10;1.80;;;10.90;99.90;;;;;;5124121;27;20039;-57
2020/12/06 10:57:56;;;;;;;7.82;2.70;;;10.90;99.90;;;;;;5121661;27;20050;-59
2020/12/06 11:01:00;;;;;;;1.85;0.85;;;10.50;99.90;;;;;;5120007;27;20042;-60
2020/12/06 11:04:05;;;;;;;0.98;0.70;;;10.20;99.90;;;;;;5126048;27;20030;-58
2020/12/06 11:07:09;;;;;;;0.93;0.60;;;10.00;99.90;;;;;;5123072;27;20039;-58
2020/12/06 11:10:14;;;;;;;0.90;0.50;;;9.70;99.90;;;;;;5123369;27;20042;-58
2020/12/06 11:13:18;;;;;;;0.98;0.70;;;9.60;99.90;;;;;;5121640;27;20027;-59
2020/12/06 11:16:23;;;;;;;2.70;0.50;;;9.50;99.90;;;;;;5131736;27;20035;-58
2020/12/06 11:19:27;;;;;;;0.40;0.30;;;9.50;99.90;;;;;;5133626;27;20494;-59
2020/12/06 11:22:31;;;;;;;0.20;0.20;;;9.40;99.90;;;;;;5133487;27;20043;-59
2020/12/06 11:25:37;;;;;;;0.70;0.52;;;9.30;99.90;;;;;;5123644;27;20478;-58
2020/12/06 11:28:42;;;;;;;0.43;0.43;;;9.30;99.90;;;;;;5133330;27;20378;-52
2020/12/06 11:31:47;;;;;;;1.85;0.73;;;9.20;99.90;;;;;;5132976;27;20035;-58
2020/12/06 11:34:51;;;;;;;2.38;1.60;;;9.10;99.90;;;;;;5133042;27;20031;-59
2020/12/06 11:37:55;;;;;;;2.92;1.42;;;9.10;99.90;;;;;;5133017;27;20035;-58
2020/12/06 11:40:59;;;;;;;1.70;0.77;;;9.10;99.90;;;;;;5133050;27;20035;-58
2020/12/06 11:44:04;;;;;;;0.20;0.20;;;9.00;99.90;;;;;;5122398;27;20425;-57
2020/12/06 11:47:08;;;;;;;2.17;1.77;;;8.90;99.90;;;;;;5133020;27;20035;-59
2020/12/06 11:50:12;;;;;;;2.05;1.80;;;8.90;99.90;;;;;;5130555;27;20035;-60
2020/12/06 11:53:17;;;;;;;2.25;0.70;;;8.90;99.90;;;;;;5133162;27;20047;-59
2020/12/06 11:56:23;;;;;;;5.80;5.10;;;9.00;99.90;;;;;;5132876;27;20039;-59
2020/12/06 11:59:27;;;;;;;6.88;6.18;;;9.00;99.90;;;;;;5133292;27;20031;-53
2020/12/06 12:02:33;;;;;;;1.38;0.80;;;9.00;99.90;;;;;;5133002;27;20031;-57
2020/12/06 12:05:37;;;;;;;7.78;6.55;;;8.90;99.90;;;;;;5132507;27;20043;-56
2020/12/06 12:08:41;;;;;;;1.00;0.85;;;8.90;99.90;;;;;;5132862;27;20390;-58
2020/12/06 12:11:46;;;;;;;0.93;0.82;;;8.80;99.90;;;;;;5132692;27;20043;-59
2020/12/06 12:14:51;;;;;;;1.77;1.17;;;8.70;99.90;;;;;;5120710;27;20023;-53
2020/12/06 12:17:56;;;;;;;0.43;0.30;;;8.60;99.90;;;;;;5130726;27;20043;-59
2020/12/06 12:21:01;;;;;;;12.85;8.23;;;8.50;99.90;;;;;;5131907;27;20035;-58
2020/12/06 12:24:05;;;;;;;2.00;0.90;;;8.50;99.90;;;;;;5118503;27;20030;-56
2020/12/06 12:27:09;;;;;;;6.60;3.45;;;8.40;99.90;;;;;;5131361;27;20039;-55
2020/12/06 12:30:13;;;;;;;1.10;0.43;;;8.30;99.90;;;;;;5120064;27;20043;-57
2020/12/06 12:33:17;;;;;;;0.55;0.50;;;8.40;99.90;;;;;;5132514;27;20378;-54
2020/12/06 12:36:22;;;;;;;5.55;1.75;;;8.30;99.90;;;;;;5131816;27;20485;-56
2020/12/06 12:39:26;;;;;;;84.22;36.75;;;8.30;99.90;;;;;;5125783;27;20035;-58
2020/12/06 12:42:29;;;;;;;2.22;1.27;;;8.20;99.90;;;;;;5132314;27;20046;-56
2020/12/06 12:45:33;;;;;;;13.02;5.85;;;7.90;99.90;;;;;;5119860;27;20039;-57
2020/12/06 12:48:38;;;;;;;3.10;2.38;;;7.90;99.90;;;;;;5131875;27;20053;-56
2020/12/06 12:51:42;;;;;;;8.70;7.70;;;8.00;99.90;;;;;;5131779;27;20039;-58
2020/12/06 12:54:46;;;;;;;3.72;2.80;;;8.10;99.90;;;;;;5132287;27;20043;-56
2020/12/06 12:57:50;;;;;;;5.97;5.38;;;8.00;99.90;;;;;;5121776;27;20034;-57
2020/12/06 13:00:55;;;;;;;3.70;1.92;;;8.00;99.90;;;;;;5119649;27;20390;-57
2020/12/06 13:03:59;;;;;;;1.73;1.00;;;8.10;99.90;;;;;;5132003;27;20473;-53
2020/12/06 13:07:03;;;;;;;5.60;4.60;;;8.10;99.90;;;;;;5131311;27;20039;-58
2020/12/06 13:10:07;;;;;;;10.20;7.35;;;8.10;99.90;;;;;;5131645;27;20039;-54
2020/12/06 13:13:11;;;;;;;11.38;9.20;;;8.10;99.90;;;;;;5122337;27;20074;-58
2020/12/06 13:16:15;;;;;;;3.65;2.60;;;8.10;99.90;;;;;;5119336;27;20050;-56
2020/12/06 13:19:20;;;;;;;35.15;26.25;;;8.20;99.90;;;;;;5131537;27;20036;-54
2020/12/06 13:22:28;;;;;;;12.98;11.57;;;8.20;99.90;;;;;;5131053;27;20038;-54
2020/12/06 13:25:32;;;;;;;8.38;6.65;;;8.10;99.90;;;;;;5131479;27;20050;-58
2020/12/06 13:28:37;;;;;;;4.07;2.72;;;8.10;99.90;;;;;;5121734;27;20046;-59
2020/12/06 13:31:42;;;;;;;7.32;5.10;;;8.10;99.90;;;;;;5118483;27;20046;-59
2020/12/06 13:34:46;;;;;;;3.70;1.65;;;8.00;99.90;;;;;;5130934;27;20386;-55
2020/12/06 13:37:50;;;;;;;1.98;1.35;;;8.00;99.90;;;;;;5130100;27;20039;-56
2020/12/06 13:40:54;;;;;;;2.35;1.60;;;8.00;99.90;;;;;;5130569;27;20043;-57
2020/12/06 13:43:58;;;;;;;2.90;2.00;;;8.10;99.90;;;;;;5121762;27;20035;-57
2020/12/06 13:47:03;;;;;;;7.25;4.78;;;8.30;99.90;;;;;;5118628;27;20039;-55
2020/12/06 13:50:09;;;;;;;7.63;5.32;;;8.40;99.90;;;;;;5130331;27;20039;-52
2020/12/06 13:53:14;;;;;;;2.38;1.80;;;8.40;99.90;;;;;;5130420;27;20031;-51
2020/12/06 13:56:18;;;;;;;1.60;0.95;;;8.40;99.90;;;;;;5130098;27;20473;-55
2020/12/06 13:59:23;;;;;;;0.60;0.35;;;8.40;99.90;;;;;;5129673;27;20035;-57
2020/12/06 14:02:27;;;;;;;4.82;3.40;;;8.10;99.90;;;;;;5119396;27;20043;-55
2020/12/06 14:05:31;;;;;;;6.78;4.80;;;8.10;99.90;;;;;;5116543;27;20039;-52
2020/12/06 14:08:35;;;;;;;1.25;0.77;;;8.10;99.90;;;;;;5129825;27;20489;-56
2020/12/06 14:11:40;;;;;;;1.83;1.00;;;8.10;99.90;;;;;;5129613;27;20035;-57
2020/12/06 14:14:44;;;;;;;7.32;6.47;;;8.00;99.90;;;;;;5130333;27;20035;-58
2020/12/06 14:17:50;;;;;;;2.08;0.90;;;8.00;99.90;;;;;;5119349;27;20035;-55
2020/12/06 14:20:56;;;;;;;2.72;1.35;;;7.90;99.90;;;;;;5117064;28;20035;-52
2020/12/06 14:24:00;;;;;;;21.30;16.05;;;7.80;99.90;;;;;;5130376;28;20035;-55
2020/12/06 14:27:04;;;;;;;7.82;5.57;;;7.80;99.90;;;;;;5130085;28;20030;-52
2020/12/06 14:30:09;;;;;;;4.80;2.20;;;7.80;99.90;;;;;;5130122;28;20666;-55
2020/12/06 14:33:13;;;;;;;8.93;6.97;;;7.80;99.90;;;;;;5116389;28;20031;-57
2020/12/06 14:36:22;;;;;;;4.45;1.85;;;7.70;99.90;;;;;;5129894;28;20379;-53
2020/12/06 14:39:26;;;;;;;3.70;0.95;;;7.60;99.90;;;;;;5124998;28;20039;-53
2020/12/06 14:42:30;;;;;;;1.38;0.60;;;7.60;99.90;;;;;;5130005;28;20047;-56
2020/12/06 14:45:34;;;;;;;2.92;0.98;;;7.50;99.90;;;;;;5120122;28;20035;-55
2020/12/06 14:48:38;;;;;;;2.20;0.88;;;7.50;99.90;;;;;;5116807;28;20032;-55
2020/12/06 14:51:47;;;;;;;0.93;0.73;;;7.50;99.90;;;;;;5129442;28;20031;-54
2020/12/06 14:54:52;;;;;;;1.85;0.80;;;7.40;99.90;;;;;;5129872;28;20039;-53
2020/12/06 14:57:55;;;;;;;2.30;0.95;;;7.20;99.90;;;;;;5129551;28;20043;-54
2020/12/06 15:00:59;;;;;;;2.53;1.92;;;7.10;99.90;;;;;;5129655;28;20027;-54
2020/12/06 15:04:04;;;;;;;3.22;2.35;;;7.10;99.90;;;;;;5118053;28;20031;-53
2020/12/06 15:07:08;;;;;;;2.72;1.88;;;7.20;99.90;;;;;;5129645;28;20039;-52
2020/12/06 15:10:13;;;;;;;4.25;1.70;;;7.20;99.90;;;;;;5129814;27;20023;-52
2020/12/06 15:13:17;;;;;;;2.42;1.75;;;7.20;99.90;;;;;;5133059;27;20039;-56
2020/12/06 15:16:21;;;;;;;6.57;4.38;;;7.10;99.90;;;;;;5133677;27;20528;-57
2020/12/06 15:19:27;;;;;;;7.78;5.38;;;7.00;99.90;;;;;;5121575;27;20035;-54
2020/12/06 15:22:31;;;;;;;9.65;5.68;;;7.00;99.90;;;;;;5119653;27;20047;-57
2020/12/06 15:25:36;;;;;;;10.43;5.43;;;6.90;99.90;;;;;;5133069;27;20031;-56
2020/12/06 15:28:41;;;;;;;6.28;3.72;;;6.90;99.90;;;;;;5133173;27;20377;-55
2020/12/06 15:31:45;;;;;;;18.08;8.75;;;6.90;99.90;;;;;;5121287;27;20058;-57
2020/12/06 15:34:49;;;;;;;3.88;2.95;;;6.90;99.90;;;;;;5133363;27;20418;-57
2020/12/06 15:37:53;;;;;;;5.82;2.95;;;6.90;99.90;;;;;;5133012;27;20043;-55
2020/12/06 15:40:58;;;;;;;8.05;4.45;;;6.90;99.90;;;;;;5132896;27;20047;-52
2020/12/06 15:44:02;;;;;;;10.32;6.15;;;6.80;99.90;;;;;;5133323;27;20390;-53
2020/12/06 15:47:08;;;;;;;18.75;12.00;;;6.80;99.90;;;;;;5133401;27;20042;-55
2020/12/06 15:50:12;;;;;;;6.93;4.15;;;6.80;99.90;;;;;;5118806;27;20042;-55
2020/12/06 15:53:16;;;;;;;11.30;5.00;;;6.80;99.90;;;;;;5132845;27;20043;-56
2020/12/06 15:56:22;;;;;;;10.65;5.90;;;6.80;99.90;;;;;;5132791;27;20508;-52
2020/12/06 15:59:26;;;;;;;10.20;5.80;;;6.70;99.90;;;;;;5132707;27;20054;-53
2020/12/06 16:02:31;;;;;;;162.23;66.40;;;6.80;99.90;;;;;;5122215;27;20046;-53
2020/12/06 16:05:35;;;;;;;15.57;8.15;;;6.80;99.90;;;;;;5119463;27;20035;-56
2020/12/06 16:08:40;;;;;;;15.32;8.88;;;6.70;99.90;;;;;;5132288;27;20404;-55
2020/12/06 16:11:44;;;;;;;6.47;4.28;;;6.80;99.90;;;;;;5132012;27;20054;-52